sensor_id;sensor_type;location;lat;lon;timestamp;temperature;humidity
36374;DHT22;22399;51.346;12.372;2023-10-19T00:01:09;7.40;99.90
36374;DHT22;22399;51.346;12.372;2023-10-19T00:03:38;7.50;99.90
36374;DHT22;22399;51.346;12.372;2023-10-19T00:06:07;7.50;99.90
36374;DHT22;22399;51.346;12.372;2023-10-19T00:08:37;7.50;99.90
36374;DHT22;22399;51.346;12.372;2023-10-19T00:11:09;7.50;99.90
36374;DHT22;22399;51.346;12.372;2023-10-19T00:13:49;7.60;99.90
36374;DHT22;22399;51.346;12.372;2023-10-19T00:16:17;7.60;99.90
36374;DHT22;22399;51.346;12.372;2023-10-19T00:18:50;7.60;99.90
36374;DHT22;22399;51.346;12.372;2023-10-19T00:21:21;7.60;99.90
36374;DHT22;22399;51.346;12.372;2023-10-19T00:23:51;7.70;99.90
36374;DHT22;22399;51.346;12.372;2023-10-19T00:26:23;7.70;99.90
36374;DHT22;22399;51.346;12.372;2023-10-19T00:28:58;7.70;99.90
36374;DHT22;22399;51.346;12.372;2023-10-19T00:31:32;7.80;99.90
36374;DHT22;22399;51.346;12.372;2023-10-19T00:34:07;7.80;99.90
36374;DHT22;22399;51.346;12.372;2023-10-19T00:36:37;7.80;99.90
36374;DHT22;22399;51.346;12.372;2023-10-19T00:39:06;7.90;99.90
36374;DHT22;22399;51.346;12.372;2023-10-19T00:41:42;7.90;99.90
36374;DHT22;22399;51.346;12.372;2023-10-19T00:44:12;8.00;99.90
36374;DHT22;22399;51.346;12.372;2023-10-19T00:46:45;8.00;99.90
36374;DHT22;22399;51.346;12.372;2023-10-19T00:49:17;8.00;99.90
36374;DHT22;22399;51.346;12.372;2023-10-19T00:51:53;8.10;99.90
36374;DHT22;22399;51.346;12.372;2023-10-19T00:54:31;8.00;99.90
36374;DHT22;22399;51.346;12.372;2023-10-19T00:57:04;8.10;99.90
36374;DHT22;22399;51.346;12.372;2023-10-19T00:59:35;8.10;99.90
36374;DHT22;22399;51.346;12.372;2023-10-19T01:02:10;8.10;99.90
36374;DHT22;22399;51.346;12.372;2023-10-19T01:04:46;8.10;99.90
36374;DHT22;22399;51.346;12.372;2023-10-19T01:07:25;8.10;99.90
36374;DHT22;22399;51.346;12.372;2023-10-19T01:09:57;8.10;99.90
36374;DHT22;22399;51.346;12.372;2023-10-19T01:12:27;8.10;99.90
36374;DHT22;22399;51.346;12.372;2023-10-19T01:15:06;8.10;99.90
36374;DHT22;22399;51.346;12.372;2023-10-19T01:17:36;8.10;99.90
36374;DHT22;22399;51.346;12.372;2023-10-19T01:20:08;8.10;99.90
36374;DHT22;22399;51.346;12.372;2023-10-19T01:22:54;8.10;99.90
36374;DHT22;22399;51.346;12.372;2023-10-19T01:25:47;8.10;99.90
36374;DHT22;22399;51.346;12.372;2023-10-19T01:28:28;8.10;99.90
36374;DHT22;22399;51.346;12.372;2023-10-19T01:31:10;8.00;99.90
36374;DHT22;22399;51.346;12.372;2023-10-19T01:33:43;8.00;99.90
36374;DHT22;22399;51.346;12.372;2023-10-19T01:36:13;8.00;99.90
36374;DHT22;22399;51.346;12.372;2023-10-19T01:38:54;8.00;99.90
36374;DHT22;22399;51.346;12.372;2023-10-19T01:41:24;8.00;99.90
36374;DHT22;22399;51.346;12.372;2023-10-19T01:43:52;8.00;99.90
36374;DHT22;22399;51.346;12.372;2023-10-19T01:46:23;8.10;99.90
36374;DHT22;22399;51.346;12.372;2023-10-19T01:48:52;8.10;99.90
36374;DHT22;22399;51.346;12.372;2023-10-19T01:51:26;8.20;99.90
36374;DHT22;22399;51.346;12.372;2023-10-19T01:53:55;8.20;99.90
36374;DHT22;22399;51.346;12.372;2023-10-19T01:56:24;8.10;99.90
36374;DHT22;22399;51.346;12.372;2023-10-19T01:58:52;8.10;99.90
36374;DHT22;22399;51.346;12.372;2023-10-19T02:01:22;8.00;99.90
36374;DHT22;22399;51.346;12.372;2023-10-19T02:03:59;8.00;99.90
36374;DHT22;22399;51.346;12.372;2023-10-19T02:06:29;7.90;99.90
36374;DHT22;22399;51.346;12.372;2023-10-19T02:09:05;7.80;99.90
36374;DHT22;22399;51.346;12.372;2023-10-19T02:11:44;7.70;99.90
36374;DHT22;22399;51.346;12.372;2023-10-19T02:14:14;7.60;99.90
36374;DHT22;22399;51.346;12.372;2023-10-19T02:16:43;7.60;99.90
36374;DHT22;22399;51.346;12.372;2023-10-19T02:19:11;7.50;99.90
36374;DHT22;22399;51.346;12.372;2023-10-19T02:21:40;7.50;99.90
36374;DHT22;22399;51.346;12.372;2023-10-19T02:24:10;7.30;99.90
36374;DHT22;22399;51.346;12.372;2023-10-19T02:26:41;7.20;99.90
36374;DHT22;22399;51.346;12.372;2023-10-19T02:29:09;7.10;99.90
36374;DHT22;22399;51.346;12.372;2023-10-19T02:31:40;7.10;99.90
36374;DHT22;22399;51.346;12.372;2023-10-19T02:34:09;7.00;99.90
36374;DHT22;22399;51.346;12.372;2023-10-19T02:36:38;7.00;99.90
36374;DHT22;22399;51.346;12.372;2023-10-19T02:39:08;7.00;99.90
36374;DHT22;22399;51.346;12.372;2023-10-19T02:41:38;6.90;99.90
36374;DHT22;22399;51.346;12.372;2023-10-19T02:44:09;6.90;99.90
36374;DHT22;22399;51.346;12.372;2023-10-19T02:46:41;6.90;99.90
36374;DHT22;22399;51.346;12.372;2023-10-19T02:49:10;6.90;99.90
36374;DHT22;22399;51.346;12.372;2023-10-19T02:51:42;6.90;99.90
36374;DHT22;22399;51.346;12.372;2023-10-19T02:54:14;6.90;99.90
36374;DHT22;22399;51.346;12.372;2023-10-19T02:56:46;6.90;99.90
36374;DHT22;22399;51.346;12.372;2023-10-19T02:59:17;6.90;99.90
36374;DHT22;22399;51.346;12.372;2023-10-19T03:01:50;6.90;99.90
36374;DHT22;22399;51.346;12.372;2023-10-19T03:04:19;6.90;99.90
36374;DHT22;22399;51.346;12.372;2023-10-19T03:06:47;7.00;99.90
36374;DHT22;22399;51.346;12.372;2023-10-19T03:09:18;6.90;99.90
36374;DHT22;22399;51.346;12.372;2023-10-19T03:11:50;6.90;99.90
36374;DHT22;22399;51.346;12.372;2023-10-19T03:14:22;6.90;99.90
36374;DHT22;22399;51.346;12.372;2023-10-19T03:16:52;6.90;99.90
36374;DHT22;22399;51.346;12.372;2023-10-19T03:19:23;6.90;99.90
36374;DHT22;22399;51.346;12.372;2023-10-19T03:21:52;6.90;99.90
36374;DHT22;22399;51.346;12.372;2023-10-19T03:24:24;6.90;99.90
36374;DHT22;22399;51.346;12.372;2023-10-19T03:27:11;6.90;99.90
36374;DHT22;22399;51.346;12.372;2023-10-19T03:29:44;6.90;99.90
36374;DHT22;22399;51.346;12.372;2023-10-19T03:32:13;6.90;99.90
36374;DHT22;22399;51.346;12.372;2023-10-19T03:34:44;6.90;99.90
36374;DHT22;22399;51.346;12.372;2023-10-19T03:37:15;6.90;99.90
36374;DHT22;22399;51.346;12.372;2023-10-19T03:39:49;6.80;99.90
36374;DHT22;22399;51.346;12.372;2023-10-19T03:42:18;6.80;99.90
36374;DHT22;22399;51.346;12.372;2023-10-19T03:44:48;6.90;99.90
36374;DHT22;22399;51.346;12.372;2023-10-19T03:47:21;6.90;99.90
36374;DHT22;22399;51.346;12.372;2023-10-19T03:49:55;6.90;99.90
36374;DHT22;22399;51.346;12.372;2023-10-19T03:52:27;6.90;99.90
36374;DHT22;22399;51.346;12.372;2023-10-19T03:54:59;6.90;99.90
36374;DHT22;22399;51.346;12.372;2023-10-19T03:57:28;6.90;99.90
36374;DHT22;22399;51.346;12.372;2023-10-19T03:59:57;7.00;99.90
36374;DHT22;22399;51.346;12.372;2023-10-19T04:02:26;6.90;99.90
36374;DHT22;22399;51.346;12.372;2023-10-19T04:04:56;6.90;99.90
36374;DHT22;22399;51.346;12.372;2023-10-19T04:07:26;7.00;99.90
36374;DHT22;22399;51.346;12.372;2023-10-19T04:10:00;7.00;99.90
36374;DHT22;22399;51.346;12.372;2023-10-19T04:12:38;7.00;99.90
36374;DHT22;22399;51.346;12.372;2023-10-19T04:15:10;7.00;99.90
36374;DHT22;22399;51.346;12.372;2023-10-19T04:17:43;7.10;99.90
36374;DHT22;22399;51.346;12.372;2023-10-19T04:20:14;7.10;99.90
36374;DHT22;22399;51.346;12.372;2023-10-19T04:22:57;7.10;99.90
36374;DHT22;22399;51.346;12.372;2023-10-19T04:25:34;7.10;99.90
36374;DHT22;22399;51.346;12.372;2023-10-19T04:28:03;7.10;99.90
36374;DHT22;22399;51.346;12.372;2023-10-19T04:30:32;7.10;99.90
36374;DHT22;22399;51.346;12.372;2023-10-19T04:33:04;7.00;99.90
36374;DHT22;22399;51.346;12.372;2023-10-19T04:35:36;7.10;99.90
36374;DHT22;22399;51.346;12.372;2023-10-19T04:38:15;7.10;99.90
36374;DHT22;22399;51.346;12.372;2023-10-19T04:40:46;7.10;99.90
36374;DHT22;22399;51.346;12.372;2023-10-19T04:43:14;7.10;99.90
36374;DHT22;22399;51.346;12.372;2023-10-19T04:45:43;7.00;99.90
36374;DHT22;22399;51.346;12.372;2023-10-19T04:48:12;7.10;99.90
36374;DHT22;22399;51.346;12.372;2023-10-19T04:50:41;7.10;99.90
36374;DHT22;22399;51.346;12.372;2023-10-19T04:53:09;7.10;99.90
36374;DHT22;22399;51.346;12.372;2023-10-19T04:55:38;7.10;99.90
36374;DHT22;22399;51.346;12.372;2023-10-19T04:58:07;7.10;99.90
36374;DHT22;22399;51.346;12.372;2023-10-19T05:00:37;7.10;99.90
36374;DHT22;22399;51.346;12.372;2023-10-19T05:03:05;7.10;99.90
36374;DHT22;22399;51.346;12.372;2023-10-19T05:05:34;7.10;99.90
36374;DHT22;22399;51.346;12.372;2023-10-19T05:08:03;7.10;99.90
36374;DHT22;22399;51.346;12.372;2023-10-19T05:10:31;7.10;99.90
36374;DHT22;22399;51.346;12.372;2023-10-19T05:13:00;7.00;99.90
36374;DHT22;22399;51.346;12.372;2023-10-19T05:15:30;7.00;99.90
36374;DHT22;22399;51.346;12.372;2023-10-19T05:17:58;7.00;99.90
36374;DHT22;22399;51.346;12.372;2023-10-19T05:20:27;7.00;99.90
36374;DHT22;22399;51.346;12.372;2023-10-19T05:22:55;7.10;99.90
36374;DHT22;22399;51.346;12.372;2023-10-19T05:25:25;7.10;99.90
36374;DHT22;22399;51.346;12.372;2023-10-19T05:27:54;7.10;99.90
36374;DHT22;22399;51.346;12.372;2023-10-19T05:30:22;7.10;99.90
36374;DHT22;22399;51.346;12.372;2023-10-19T05:32:52;7.10;99.90
36374;DHT22;22399;51.346;12.372;2023-10-19T05:35:23;7.10;99.90
36374;DHT22;22399;51.346;12.372;2023-10-19T05:37:53;7.10;99.90
36374;DHT22;22399;51.346;12.372;2023-10-19T05:40:22;7.10;99.90
36374;DHT22;22399;51.346;12.372;2023-10-19T05:42:57;7.10;99.90
36374;DHT22;22399;51.346;12.372;2023-10-19T05:45:28;7.10;99.90
36374;DHT22;22399;51.346;12.372;2023-10-19T05:47:58;7.10;99.90
36374;DHT22;22399;51.346;12.372;2023-10-19T05:50:27;7.10;99.90
36374;DHT22;22399;51.346;12.372;2023-10-19T05:52:55;7.10;99.90
36374;DHT22;22399;51.346;12.372;2023-10-19T05:55:23;7.10;99.90
36374;DHT22;22399;51.346;12.372;2023-10-19T05:57:53;7.10;99.90
36374;DHT22;22399;51.346;12.372;2023-10-19T06:00:21;7.10;99.90
36374;DHT22;22399;51.346;12.372;2023-10-19T06:02:53;7.10;99.90
36374;DHT22;22399;51.346;12.372;2023-10-19T06:05:23;7.10;99.90
36374;DHT22;22399;51.346;12.372;2023-10-19T06:07:51;7.20;99.90
36374;DHT22;22399;51.346;12.372;2023-10-19T06:10:20;7.20;99.90
36374;DHT22;22399;51.346;12.372;2023-10-19T06:12:50;7.20;99.90
36374;DHT22;22399;51.346;12.372;2023-10-19T06:15:20;7.20;99.90
36374;DHT22;22399;51.346;12.372;2023-10-19T06:17:50;7.20;99.90
36374;DHT22;22399;51.346;12.372;2023-10-19T06:20:20;7.20;99.90
36374;DHT22;22399;51.346;12.372;2023-10-19T06:22:53;7.30;99.90
36374;DHT22;22399;51.346;12.372;2023-10-19T06:25:24;7.20;99.90
36374;DHT22;22399;51.346;12.372;2023-10-19T06:27:53;7.20;99.90
36374;DHT22;22399;51.346;12.372;2023-10-19T06:30:25;7.30;99.90
36374;DHT22;22399;51.346;12.372;2023-10-19T06:32:54;7.20;99.90
36374;DHT22;22399;51.346;12.372;2023-10-19T06:35:25;7.30;99.90
36374;DHT22;22399;51.346;12.372;2023-10-19T06:37:55;7.30;99.90
36374;DHT22;22399;51.346;12.372;2023-10-19T06:40:24;7.30;99.90
36374;DHT22;22399;51.346;12.372;2023-10-19T06:42:55;7.30;99.90
36374;DHT22;22399;51.346;12.372;2023-10-19T06:45:24;7.30;99.90
36374;DHT22;22399;51.346;12.372;2023-10-19T06:47:53;7.40;99.90
36374;DHT22;22399;51.346;12.372;2023-10-19T06:50:23;7.40;99.90
36374;DHT22;22399;51.346;12.372;2023-10-19T06:52:53;7.40;99.90
36374;DHT22;22399;51.346;12.372;2023-10-19T06:55:24;7.50;99.90
36374;DHT22;22399;51.346;12.372;2023-10-19T06:57:54;7.50;99.90
36374;DHT22;22399;51.346;12.372;2023-10-19T07:00:24;7.50;99.90
36374;DHT22;22399;51.346;12.372;2023-10-19T07:02:56;7.60;99.90
36374;DHT22;22399;51.346;12.372;2023-10-19T07:05:24;7.60;99.90
36374;DHT22;22399;51.346;12.372;2023-10-19T07:07:53;7.60;99.90
36374;DHT22;22399;51.346;12.372;2023-10-19T07:10:25;7.70;99.90
36374;DHT22;22399;51.346;12.372;2023-10-19T07:12:56;7.70;99.90
36374;DHT22;22399;51.346;12.372;2023-10-19T07:15:25;7.70;99.90
36374;DHT22;22399;51.346;12.372;2023-10-19T07:17:55;7.70;99.90
36374;DHT22;22399;51.346;12.372;2023-10-19T07:20:24;7.80;99.90
36374;DHT22;22399;51.346;12.372;2023-10-19T07:22:57;7.80;99.90
36374;DHT22;22399;51.346;12.372;2023-10-19T07:25:29;7.80;99.90
36374;DHT22;22399;51.346;12.372;2023-10-19T07:27:58;7.80;99.90
36374;DHT22;22399;51.346;12.372;2023-10-19T07:30:29;7.90;99.90
36374;DHT22;22399;51.346;12.372;2023-10-19T07:32:58;7.90;99.90
36374;DHT22;22399;51.346;12.372;2023-10-19T07:35:27;7.90;99.90
36374;DHT22;22399;51.346;12.372;2023-10-19T07:38:01;8.00;99.90
36374;DHT22;22399;51.346;12.372;2023-10-19T07:40:32;8.00;99.90
36374;DHT22;22399;51.346;12.372;2023-10-19T07:43:00;8.00;99.90
36374;DHT22;22399;51.346;12.372;2023-10-19T07:45:31;8.00;99.90
36374;DHT22;22399;51.346;12.372;2023-10-19T07:48:02;8.10;99.90
36374;DHT22;22399;51.346;12.372;2023-10-19T07:50:34;8.10;99.90
36374;DHT22;22399;51.346;12.372;2023-10-19T07:53:04;8.20;99.90
36374;DHT22;22399;51.346;12.372;2023-10-19T07:55:33;8.20;99.90
36374;DHT22;22399;51.346;12.372;2023-10-19T07:58:02;8.20;99.90
36374;DHT22;22399;51.346;12.372;2023-10-19T08:00:31;8.20;99.90
36374;DHT22;22399;51.346;12.372;2023-10-19T08:03:01;8.20;99.90
36374;DHT22;22399;51.346;12.372;2023-10-19T08:05:30;8.30;99.90
36374;DHT22;22399;51.346;12.372;2023-10-19T08:07:59;8.40;99.90
36374;DHT22;22399;51.346;12.372;2023-10-19T08:10:28;8.50;99.90
36374;DHT22;22399;51.346;12.372;2023-10-19T08:12:58;8.50;99.90
36374;DHT22;22399;51.346;12.372;2023-10-19T08:15:27;8.50;99.90
36374;DHT22;22399;51.346;12.372;2023-10-19T08:17:57;8.60;99.90
36374;DHT22;22399;51.346;12.372;2023-10-19T08:20:26;8.70;99.90
36374;DHT22;22399;51.346;12.372;2023-10-19T08:22:59;8.70;99.90
36374;DHT22;22399;51.346;12.372;2023-10-19T08:25:30;8.70;99.90
36374;DHT22;22399;51.346;12.372;2023-10-19T08:28:20;8.80;99.90
36374;DHT22;22399;51.346;12.372;2023-10-19T08:30:49;8.80;99.90
36374;DHT22;22399;51.346;12.372;2023-10-19T08:33:26;8.90;99.90
36374;DHT22;22399;51.346;12.372;2023-10-19T08:35:55;8.90;99.90
36374;DHT22;22399;51.346;12.372;2023-10-19T08:38:24;9.00;99.90
36374;DHT22;22399;51.346;12.372;2023-10-19T08:40:53;9.10;99.90
36374;DHT22;22399;51.346;12.372;2023-10-19T08:43:24;9.10;99.90
36374;DHT22;22399;51.346;12.372;2023-10-19T08:45:53;9.20;99.90
36374;DHT22;22399;51.346;12.372;2023-10-19T08:48:23;9.30;99.90
36374;DHT22;22399;51.346;12.372;2023-10-19T08:50:51;9.30;99.90
36374;DHT22;22399;51.346;12.372;2023-10-19T08:53:24;9.30;99.90
36374;DHT22;22399;51.346;12.372;2023-10-19T08:55:52;9.40;99.90
36374;DHT22;22399;51.346;12.372;2023-10-19T08:58:24;9.50;99.90
36374;DHT22;22399;51.346;12.372;2023-10-19T09:00:54;9.50;99.90
36374;DHT22;22399;51.346;12.372;2023-10-19T09:03:24;9.60;99.90
36374;DHT22;22399;51.346;12.372;2023-10-19T09:05:54;9.60;99.90
36374;DHT22;22399;51.346;12.372;2023-10-19T09:08:23;9.70;99.90
36374;DHT22;22399;51.346;12.372;2023-10-19T09:10:52;9.90;99.90
36374;DHT22;22399;51.346;12.372;2023-10-19T09:13:24;10.00;99.90
36374;DHT22;22399;51.346;12.372;2023-10-19T09:15:52;10.00;99.90
36374;DHT22;22399;51.346;12.372;2023-10-19T09:18:24;10.20;99.90
36374;DHT22;22399;51.346;12.372;2023-10-19T09:20:56;10.20;99.90
36374;DHT22;22399;51.346;12.372;2023-10-19T09:23:30;10.20;99.90
36374;DHT22;22399;51.346;12.372;2023-10-19T09:26:00;10.30;99.90
36374;DHT22;22399;51.346;12.372;2023-10-19T09:28:34;10.30;99.90
36374;DHT22;22399;51.346;12.372;2023-10-19T09:31:04;10.30;99.90
36374;DHT22;22399;51.346;12.372;2023-10-19T09:33:33;10.40;99.90
36374;DHT22;22399;51.346;12.372;2023-10-19T09:36:03;10.40;99.90
36374;DHT22;22399;51.346;12.372;2023-10-19T09:38:48;10.50;99.90
36374;DHT22;22399;51.346;12.372;2023-10-19T09:41:18;10.50;99.90
36374;DHT22;22399;51.346;12.372;2023-10-19T09:43:50;10.60;99.90
36374;DHT22;22399;51.346;12.372;2023-10-19T09:46:23;10.70;99.90
36374;DHT22;22399;51.346;12.372;2023-10-19T09:48:52;10.90;99.90
36374;DHT22;22399;51.346;12.372;2023-10-19T09:51:21;11.00;99.90
36374;DHT22;22399;51.346;12.372;2023-10-19T09:53:55;11.10;99.90
36374;DHT22;22399;51.346;12.372;2023-10-19T09:56:29;11.20;99.90
36374;DHT22;22399;51.346;12.372;2023-10-19T09:59:05;11.40;99.90
36374;DHT22;22399;51.346;12.372;2023-10-19T10:02:05;11.60;99.90
36374;DHT22;22399;51.346;12.372;2023-10-19T10:04:35;11.70;99.90
36374;DHT22;22399;51.346;12.372;2023-10-19T10:07:05;11.70;99.90
36374;DHT22;22399;51.346;12.372;2023-10-19T10:09:36;11.70;99.90
36374;DHT22;22399;51.346;12.372;2023-10-19T10:12:21;11.80;99.90
36374;DHT22;22399;51.346;12.372;2023-10-19T10:14:57;11.90;99.90
36374;DHT22;22399;51.346;12.372;2023-10-19T10:17:26;11.90;99.90
36374;DHT22;22399;51.346;12.372;2023-10-19T10:19:56;12.20;99.90
36374;DHT22;22399;51.346;12.372;2023-10-19T10:22:27;12.10;99.90
36374;DHT22;22399;51.346;12.372;2023-10-19T10:24:55;12.10;99.90
36374;DHT22;22399;51.346;12.372;2023-10-19T10:27:24;12.00;99.90
36374;DHT22;22399;51.346;12.372;2023-10-19T10:29:57;12.10;99.90
36374;DHT22;22399;51.346;12.372;2023-10-19T10:32:46;12.20;99.90
36374;DHT22;22399;51.346;12.372;2023-10-19T10:35:53;12.30;99.90
36374;DHT22;22399;51.346;12.372;2023-10-19T10:38:21;12.40;99.90
36374;DHT22;22399;51.346;12.372;2023-10-19T10:40:50;12.50;99.90
36374;DHT22;22399;51.346;12.372;2023-10-19T10:43:20;12.60;99.90
36374;DHT22;22399;51.346;12.372;2023-10-19T10:45:52;12.60;99.90
36374;DHT22;22399;51.346;12.372;2023-10-19T10:48:20;12.50;99.90
36374;DHT22;22399;51.346;12.372;2023-10-19T10:50:49;12.50;99.90
36374;DHT22;22399;51.346;12.372;2023-10-19T10:53:18;12.50;99.90
36374;DHT22;22399;51.346;12.372;2023-10-19T10:55:46;12.50;99.90
36374;DHT22;22399;51.346;12.372;2023-10-19T10:58:15;12.70;99.90
36374;DHT22;22399;51.346;12.372;2023-10-19T11:00:44;12.90;99.90
36374;DHT22;22399;51.346;12.372;2023-10-19T11:03:15;13.20;99.90
36374;DHT22;22399;51.346;12.372;2023-10-19T11:05:44;13.40;99.90
36374;DHT22;22399;51.346;12.372;2023-10-19T11:08:14;13.60;99.90
36374;DHT22;22399;51.346;12.372;2023-10-19T11:10:45;13.80;99.90
36374;DHT22;22399;51.346;12.372;2023-10-19T11:13:14;14.10;99.90
36374;DHT22;22399;51.346;12.372;2023-10-19T11:15:48;14.10;99.90
36374;DHT22;22399;51.346;12.372;2023-10-19T11:18:34;14.20;99.90
36374;DHT22;22399;51.346;12.372;2023-10-19T11:21:06;14.20;99.90
36374;DHT22;22399;51.346;12.372;2023-10-19T11:23:38;14.30;99.90
36374;DHT22;22399;51.346;12.372;2023-10-19T11:26:07;14.40;99.90
36374;DHT22;22399;51.346;12.372;2023-10-19T11:28:37;14.60;99.90
36374;DHT22;22399;51.346;12.372;2023-10-19T11:31:15;14.80;99.90
36374;DHT22;22399;51.346;12.372;2023-10-19T11:33:46;14.90;99.90
36374;DHT22;22399;51.346;12.372;2023-10-19T11:36:17;15.00;99.90
36374;DHT22;22399;51.346;12.372;2023-10-19T11:38:47;15.00;99.90
36374;DHT22;22399;51.346;12.372;2023-10-19T11:41:16;15.20;99.90
36374;DHT22;22399;51.346;12.372;2023-10-19T11:43:45;15.30;99.90
36374;DHT22;22399;51.346;12.372;2023-10-19T11:46:16;15.30;99.90
36374;DHT22;22399;51.346;12.372;2023-10-19T11:48:46;15.20;99.90
36374;DHT22;22399;51.346;12.372;2023-10-19T11:51:15;15.40;99.90
36374;DHT22;22399;51.346;12.372;2023-10-19T11:53:44;15.40;99.90
36374;DHT22;22399;51.346;12.372;2023-10-19T11:56:13;15.40;99.90
36374;DHT22;22399;51.346;12.372;2023-10-19T11:58:43;15.30;99.90
36374;DHT22;22399;51.346;12.372;2023-10-19T12:01:15;15.20;99.90
36374;DHT22;22399;51.346;12.372;2023-10-19T12:03:45;15.10;99.90
36374;DHT22;22399;51.346;12.372;2023-10-19T12:06:17;14.90;99.90
36374;DHT22;22399;51.346;12.372;2023-10-19T12:08:47;14.90;99.90
36374;DHT22;22399;51.346;12.372;2023-10-19T12:11:15;14.90;99.90
36374;DHT22;22399;51.346;12.372;2023-10-19T12:13:46;14.80;99.90
36374;DHT22;22399;51.346;12.372;2023-10-19T12:16:16;14.80;99.90
36374;DHT22;22399;51.346;12.372;2023-10-19T12:18:45;14.70;99.90
36374;DHT22;22399;51.346;12.372;2023-10-19T12:21:17;14.50;99.90
36374;DHT22;22399;51.346;12.372;2023-10-19T12:23:54;14.40;99.90
36374;DHT22;22399;51.346;12.372;2023-10-19T12:26:24;14.30;99.90
36374;DHT22;22399;51.346;12.372;2023-10-19T12:28:52;14.40;99.90
36374;DHT22;22399;51.346;12.372;2023-10-19T12:31:21;14.60;99.90
36374;DHT22;22399;51.346;12.372;2023-10-19T12:33:50;14.50;99.90
36374;DHT22;22399;51.346;12.372;2023-10-19T12:36:21;14.50;99.90
36374;DHT22;22399;51.346;12.372;2023-10-19T12:38:58;14.60;99.90
36374;DHT22;22399;51.346;12.372;2023-10-19T12:41:27;14.60;99.90
36374;DHT22;22399;51.346;12.372;2023-10-19T12:43:56;14.50;99.90
36374;DHT22;22399;51.346;12.372;2023-10-19T12:46:26;14.50;99.90
36374;DHT22;22399;51.346;12.372;2023-10-19T12:48:56;14.50;99.90
36374;DHT22;22399;51.346;12.372;2023-10-19T12:51:27;14.40;99.90
36374;DHT22;22399;51.346;12.372;2023-10-19T12:53:55;14.30;99.90
36374;DHT22;22399;51.346;12.372;2023-10-19T12:56:24;14.20;99.90
36374;DHT22;22399;51.346;12.372;2023-10-19T12:58:56;14.20;99.90
36374;DHT22;22399;51.346;12.372;2023-10-19T13:01:24;14.30;99.90
36374;DHT22;22399;51.346;12.372;2023-10-19T13:03:55;14.40;99.90
36374;DHT22;22399;51.346;12.372;2023-10-19T13:06:24;14.50;99.90
36374;DHT22;22399;51.346;12.372;2023-10-19T13:08:57;14.50;99.90
36374;DHT22;22399;51.346;12.372;2023-10-19T13:11:26;14.50;99.90
36374;DHT22;22399;51.346;12.372;2023-10-19T13:13:54;14.50;99.90
36374;DHT22;22399;51.346;12.372;2023-10-19T13:16:23;14.50;99.90
36374;DHT22;22399;51.346;12.372;2023-10-19T13:18:52;14.60;99.90
36374;DHT22;22399;51.346;12.372;2023-10-19T13:21:20;14.60;99.90
36374;DHT22;22399;51.346;12.372;2023-10-19T13:23:54;14.70;99.90
36374;DHT22;22399;51.346;12.372;2023-10-19T13:26:24;14.70;99.90
36374;DHT22;22399;51.346;12.372;2023-10-19T13:28:53;14.60;99.90
36374;DHT22;22399;51.346;12.372;2023-10-19T13:31:23;14.50;99.90
36374;DHT22;22399;51.346;12.372;2023-10-19T13:33:53;14.50;99.90
36374;DHT22;22399;51.346;12.372;2023-10-19T13:36:21;14.40;99.90
36374;DHT22;22399;51.346;12.372;2023-10-19T13:38:50;14.30;99.90
36374;DHT22;22399;51.346;12.372;2023-10-19T13:41:19;14.20;99.90
36374;DHT22;22399;51.346;12.372;2023-10-19T13:43:49;14.20;99.90
36374;DHT22;22399;51.346;12.372;2023-10-19T13:46:18;14.10;99.90
36374;DHT22;22399;51.346;12.372;2023-10-19T13:48:47;14.00;99.90
36374;DHT22;22399;51.346;12.372;2023-10-19T13:51:16;14.10;99.90
36374;DHT22;22399;51.346;12.372;2023-10-19T13:53:46;14.10;99.90
36374;DHT22;22399;51.346;12.372;2023-10-19T13:56:17;14.10;99.90
36374;DHT22;22399;51.346;12.372;2023-10-19T13:58:46;14.10;99.90
36374;DHT22;22399;51.346;12.372;2023-10-19T14:01:16;14.10;99.90
36374;DHT22;22399;51.346;12.372;2023-10-19T14:03:45;14.10;99.90
36374;DHT22;22399;51.346;12.372;2023-10-19T14:06:14;14.10;99.90
36374;DHT22;22399;51.346;12.372;2023-10-19T14:08:44;14.10;99.90
36374;DHT22;22399;51.346;12.372;2023-10-19T14:11:12;14.10;99.90
36374;DHT22;22399;51.346;12.372;2023-10-19T14:13:41;14.10;99.90
36374;DHT22;22399;51.346;12.372;2023-10-19T14:16:10;14.20;99.90
36374;DHT22;22399;51.346;12.372;2023-10-19T14:18:42;14.10;99.90
36374;DHT22;22399;51.346;12.372;2023-10-19T14:21:11;14.10;99.90
36374;DHT22;22399;51.346;12.372;2023-10-19T14:23:41;14.10;99.90
36374;DHT22;22399;51.346;12.372;2023-10-19T14:26:09;14.10;99.90
36374;DHT22;22399;51.346;12.372;2023-10-19T14:28:39;14.10;99.90
36374;DHT22;22399;51.346;12.372;2023-10-19T14:31:08;14.10;99.90
36374;DHT22;22399;51.346;12.372;2023-10-19T14:33:39;14.10;99.90
36374;DHT22;22399;51.346;12.372;2023-10-19T14:36:09;14.10;99.90
36374;DHT22;22399;51.346;12.372;2023-10-19T14:38:38;14.10;99.90
36374;DHT22;22399;51.346;12.372;2023-10-19T14:41:06;14.10;99.90
36374;DHT22;22399;51.346;12.372;2023-10-19T14:43:37;14.10;99.90
36374;DHT22;22399;51.346;12.372;2023-10-19T14:46:08;14.10;99.90
36374;DHT22;22399;51.346;12.372;2023-10-19T14:48:36;14.10;99.90
36374;DHT22;22399;51.346;12.372;2023-10-19T14:51:06;14.10;99.90
36374;DHT22;22399;51.346;12.372;2023-10-19T14:53:34;14.10;99.90
36374;DHT22;22399;51.346;12.372;2023-10-19T14:56:03;14.10;99.90
36374;DHT22;22399;51.346;12.372;2023-10-19T14:58:33;14.10;99.90
36374;DHT22;22399;51.346;12.372;2023-10-19T15:01:01;14.00;99.90
36374;DHT22;22399;51.346;12.372;2023-10-19T15:03:30;14.00;99.90
36374;DHT22;22399;51.346;12.372;2023-10-19T15:05:58;13.90;99.90
36374;DHT22;22399;51.346;12.372;2023-10-19T15:08:28;13.90;99.90
36374;DHT22;22399;51.346;12.372;2023-10-19T15:10:58;13.80;99.90
36374;DHT22;22399;51.346;12.372;2023-10-19T15:13:27;13.80;99.90
36374;DHT22;22399;51.346;12.372;2023-10-19T15:15:56;13.80;99.90
36374;DHT22;22399;51.346;12.372;2023-10-19T15:18:24;13.80;99.90
36374;DHT22;22399;51.346;12.372;2023-10-19T15:20:53;13.70;99.90
36374;DHT22;22399;51.346;12.372;2023-10-19T15:23:21;13.60;99.90
36374;DHT22;22399;51.346;12.372;2023-10-19T15:25:54;13.50;99.90
36374;DHT22;22399;51.346;12.372;2023-10-19T15:28:23;13.50;99.90
36374;DHT22;22399;51.346;12.372;2023-10-19T15:30:51;13.40;99.90
36374;DHT22;22399;51.346;12.372;2023-10-19T15:33:20;13.40;99.90
36374;DHT22;22399;51.346;12.372;2023-10-19T15:35:48;13.40;99.90
36374;DHT22;22399;51.346;12.372;2023-10-19T15:38:20;13.30;99.90
36374;DHT22;22399;51.346;12.372;2023-10-19T15:40:49;13.30;99.90
36374;DHT22;22399;51.346;12.372;2023-10-19T15:43:18;13.20;99.90
36374;DHT22;22399;51.346;12.372;2023-10-19T15:45:47;13.20;99.90
36374;DHT22;22399;51.346;12.372;2023-10-19T15:48:16;13.20;99.90